Time;durP1;ratioP1;P1;durP2;ratioP2;P2;SDS_P1;SDS_P2;PMS_P1;PMS_P2;Temp;Humidity;BMP_temperature;BMP_pressure;BME280_temperature;BME280_humidity;BME280_pressure;Samples;Min_cycle;Max_cycle;Signal;HPM_P1;HPM_P2
2023/10/28 00:00:50;;;;;;;0.90;0.60;;;;;;;9.93;85.04;96442.00;5109283;28;20908;-80
2023/10/28 00:03:17;;;;;;;0.77;0.60;;;;;;;9.87;85.33;96449.16;5106760;28;20210;-80
2023/10/28 00:05:44;;;;;;;1.13;0.70;;;;;;;10.00;85.14;96448.91;5106031;28;20219;-79
2023/10/28 00:08:10;;;;;;;1.40;0.70;;;;;;;10.02;84.63;96452.22;5106728;28;20202;-80
2023/10/28 00:10:41;;;;;;;0.85;0.60;;;;;;;10.07;84.75;96444.19;5106139;28;20201;-80
2023/10/28 00:13:08;;;;;;;0.85;0.60;;;;;;;10.14;84.28;96454.88;5109634;28;20283;-81
2023/10/28 00:15:35;;;;;;;2.53;0.70;;;;;;;10.13;84.37;96438.88;5104977;28;20230;-78
2023/10/28 00:18:02;;;;;;;0.60;0.50;;;;;;;9.82;83.81;96402.28;5103514;28;20199;-78
2023/10/28 00:20:29;;;;;;;1.00;0.70;;;;;;;10.11;84.21;96455.34;5097928;28;20232;-79
2023/10/28 00:22:57;;;;;;;0.82;0.60;;;;;;;10.00;84.26;96451.63;5104325;28;20202;-79
2023/10/28 00:25:25;;;;;;;0.90;0.80;;;;;;;10.08;83.94;96448.53;5109521;28;20293;-79
2023/10/28 00:27:54;;;;;;;0.60;0.60;;;;;;;10.03;83.27;96448.44;5108061;28;20230;-79
2023/10/28 00:30:22;;;;;;;6.00;1.35;;;;;;;10.13;82.74;96447.00;5104838;28;20203;-79
2023/10/28 00:32:49;;;;;;;3.00;0.63;;;;;;;10.06;83.13;96460.66;5108908;28;20203;-80
2023/10/28 00:37:51;;;;;;;1.17;0.60;;;;;;;10.03;84.24;96455.72;5112587;22;20226;-78
2023/10/28 00:40:18;;;;;;;0.80;0.50;;;;;;;10.08;82.89;96467.44;5067712;28;20300;-78
2023/10/28 00:42:45;;;;;;;0.70;0.60;;;;;;;10.02;83.31;96464.91;5069496;28;20195;-79
2023/10/28 00:45:15;;;;;;;1.15;0.70;;;;;;;10.06;83.15;96475.00;5070421;28;20570;-78
2023/10/28 00:47:44;;;;;;;0.60;0.60;;;;;;;10.05;83.85;96467.94;5049324;28;20204;-78
2023/10/28 00:50:12;;;;;;;0.85;0.73;;;;;;;10.09;83.13;96469.09;5045358;28;20200;-78
2023/10/28 00:52:39;;;;;;;1.15;0.60;;;;;;;10.01;83.90;96465.97;5048393;28;20308;-79
2023/10/28 00:55:09;;;;;;;0.70;0.60;;;;;;;10.01;83.43;96466.78;5045991;28;20201;-78
2023/10/28 00:57:35;;;;;;;0.60;0.50;;;;;;;10.02;83.34;96465.72;5047766;28;20712;-79
2023/10/28 01:00:06;;;;;;;1.60;0.75;;;;;;;10.02;83.08;96476.53;5048370;28;20230;-79
2023/10/28 01:02:34;;;;;;;0.90;0.63;;;;;;;10.02;83.11;96481.94;5049757;28;20251;-79
2023/10/28 01:05:01;;;;;;;0.65;0.60;;;;;;;10.00;83.31;96475.13;5046963;28;20211;-78
2023/10/28 01:07:28;;;;;;;1.45;0.70;;;;;;;10.03;83.03;96480.06;5048594;28;20228;-78
2023/10/28 01:09:55;;;;;;;1.00;0.70;;;;;;;9.92;83.47;96479.00;5049481;28;20203;-78
2023/10/28 01:12:23;;;;;;;1.17;0.60;;;;;;;9.93;83.49;96485.22;5046480;28;20204;-78
2023/10/28 01:14:50;;;;;;;0.82;0.50;;;;;;;9.97;83.52;96484.53;5045509;28;20291;-78
2023/10/28 01:17:16;;;;;;;1.05;0.80;;;;;;;10.02;83.64;96483.81;5044635;28;20707;-78
2023/10/28 01:19:44;;;;;;;1.00;0.82;;;;;;;9.92;83.70;96484.41;5041036;28;20204;-79
2023/10/28 01:22:12;;;;;;;1.27;0.80;;;;;;;9.85;84.46;96489.09;5047019;28;20195;-78
2023/10/28 01:24:38;;;;;;;2.15;0.60;;;;;;;9.80;84.40;96499.78;5048700;28;20266;-78
2023/10/28 01:27:05;;;;;;;1.60;0.70;;;;;;;9.84;84.51;96486.63;5047874;28;20296;-78
2023/10/28 01:29:32;;;;;;;0.98;0.70;;;;;;;9.75;84.75;96496.97;5039141;28;20654;-78
2023/10/28 01:31:59;;;;;;;1.13;0.68;;;;;;;9.76;84.86;96491.34;5049075;28;20204;-79
2023/10/28 01:34:26;;;;;;;1.40;0.80;;;;;;;9.75;84.34;96494.25;5047072;28;20211;-79
2023/10/28 01:36:52;;;;;;;1.20;0.70;;;;;;;9.84;84.25;96500.97;5048471;28;20232;-78
2023/10/28 01:39:20;;;;;;;1.00;0.70;;;;;;;9.82;84.43;96497.69;5045945;28;20649;-78
2023/10/28 01:41:46;;;;;;;0.70;0.50;;;;;;;9.82;84.53;96494.97;5045489;28;20758;-78
2023/10/28 01:44:14;;;;;;;0.80;0.80;;;;;;;9.89;83.70;96489.47;5063442;28;20287;-78
2023/10/28 01:46:41;;;;;;;0.70;0.70;;;;;;;9.82;84.07;96499.56;5039608;28;20273;-78
2023/10/28 01:49:08;;;;;;;1.05;0.70;;;;;;;9.83;83.90;96506.59;5044641;28;20193;-78
2023/10/28 01:51:34;;;;;;;0.90;0.68;;;;;;;9.87;84.23;96507.78;5044782;28;20204;-78
2023/10/28 01:54:01;;;;;;;0.80;0.70;;;;;;;9.82;84.14;96507.66;5046434;28;20201;-78
2023/10/28 01:56:29;;;;;;;1.30;0.63;;;;;;;9.83;83.87;96507.44;5047253;28;20298;-78
2023/10/28 01:58:55;;;;;;;1.70;0.63;;;;;;;9.77;84.14;96509.19;5047511;28;20279;-79
2023/10/28 02:01:25;;;;;;;1.70;0.88;;;;;;;9.78;84.48;96515.41;5045601;28;20525;-78
2023/10/28 02:03:53;;;;;;;1.70;0.63;;;;;;;9.82;84.50;96516.59;5045564;28;20269;-78
2023/10/28 02:06:19;;;;;;;1.40;0.63;;;;;;;9.93;83.72;96512.25;5047048;28;20224;-78
2023/10/28 02:08:46;;;;;;;1.13;0.80;;;;;;;10.01;83.64;96525.41;5048559;28;20207;-78
2023/10/28 02:11:12;;;;;;;2.25;0.88;;;;;;;9.92;83.79;96524.94;5045745;28;20205;-78
2023/10/28 02:13:40;;;;;;;0.80;0.80;;;;;;;9.90;84.18;96535.16;5047563;28;20323;-78
2023/10/28 02:16:07;;;;;;;2.03;0.60;;;;;;;9.89;84.42;96532.69;5045177;28;20561;-78
2023/10/28 02:18:34;;;;;;;1.65;0.90;;;;;;;9.91;84.08;96536.81;5047881;28;20279;-78
2023/10/28 02:21:00;;;;;;;1.92;1.00;;;;;;;9.91;84.20;96528.69;5046968;28;20232;-78
2023/10/28 02:23:27;;;;;;;0.85;0.70;;;;;;;9.87;84.08;96524.81;5041682;28;20207;-78
2023/10/28 02:25:53;;;;;;;0.90;0.70;;;;;;;9.85;83.75;96537.75;5045900;28;20229;-78
2023/10/28 02:28:20;;;;;;;1.00;0.60;;;;;;;9.91;83.95;96538.69;5048719;28;20193;-78
2023/10/28 02:30:47;;;;;;;4.25;0.93;;;;;;;9.83;83.97;96531.75;5046762;28;20193;-78
2023/10/28 02:33:14;;;;;;;2.13;0.93;;;;;;;9.81;83.62;96535.75;5046697;28;20681;-78
2023/10/28 02:35:40;;;;;;;1.00;0.70;;;;;;;9.97;83.45;96529.66;5045200;28;20228;-78
2023/10/28 02:38:07;;;;;;;0.80;0.63;;;;;;;9.93;83.35;96537.41;5046826;28;20215;-78
2023/10/28 02:40:33;;;;;;;1.25;0.73;;;;;;;9.75;83.81;96532.09;5046898;28;20232;-78
2023/10/28 02:43:00;;;;;;;1.58;0.77;;;;;;;9.81;83.33;96530.34;5047913;28;20552;-78
2023/10/28 02:45:26;;;;;;;2.83;0.90;;;;;;;9.81;82.95;96533.84;5044511;28;20216;-78
2023/10/28 02:47:54;;;;;;;0.90;0.80;;;;;;;9.71;83.55;96536.34;5048709;28;20223;-78
2023/10/28 02:50:20;;;;;;;1.10;0.70;;;;;;;9.70;83.37;96537.41;5047318;28;20208;-78
2023/10/28 02:52:46;;;;;;;1.40;0.80;;;;;;;9.85;83.46;96534.22;5042969;28;20236;-78
2023/10/28 02:55:13;;;;;;;1.40;0.82;;;;;;;9.78;83.39;96542.44;5044194;28;22491;-78
2023/10/28 02:57:40;;;;;;;2.03;0.93;;;;;;;9.88;83.21;96536.44;5042361;28;20219;-78
2023/10/28 03:00:08;;;;;;;1.10;1.00;;;;;;;9.77;83.69;96538.09;5049287;28;20243;-78
2023/10/28 03:02:35;;;;;;;1.20;0.80;;;;;;;9.76;83.39;96539.13;5050611;28;20228;-78
2023/10/28 03:05:04;;;;;;;1.98;1.00;;;;;;;9.82;82.98;96538.22;5049667;28;20205;-78
2023/10/28 03:07:31;;;;;;;1.10;0.93;;;;;;;9.90;82.65;96537.88;5050324;28;20212;-79
2023/10/28 03:09:58;;;;;;;0.85;0.65;;;;;;;9.94;82.78;96535.50;5051049;28;20211;-78
2023/10/28 03:12:24;;;;;;;0.90;0.90;;;;;;;9.95;82.06;96534.47;5050268;28;20243;-79
2023/10/28 03:14:51;;;;;;;3.30;1.00;;;;;;;9.91;81.88;96534.09;5040862;28;20201;-78
2023/10/28 03:17:18;;;;;;;2.20;0.90;;;;;;;9.86;82.16;96533.97;5044174;28;20327;-78
2023/10/28 03:19:44;;;;;;;1.83;0.90;;;;;;;9.87;81.64;96532.94;5045022;28;20258;-78
2023/10/28 03:22:12;;;;;;;2.72;1.10;;;;;;;9.86;81.87;96535.88;5045746;28;20223;-78
2023/10/28 03:24:38;;;;;;;1.63;0.90;;;;;;;9.93;81.30;96532.00;5046222;28;20212;-78
2023/10/28 03:27:05;;;;;;;2.63;1.10;;;;;;;9.93;80.63;96533.88;5051294;28;20575;-78
2023/10/28 03:29:31;;;;;;;1.83;1.10;;;;;;;9.85;81.40;96536.91;5040837;28;20286;-78
2023/10/28 03:31:58;;;;;;;1.38;1.13;;;;;;;9.86;80.76;96535.88;5049723;28;20199;-78
2023/10/28 03:34:26;;;;;;;3.42;1.33;;;;;;;9.95;80.42;96537.16;5047305;28;20214;-78
2023/10/28 03:36:52;;;;;;;2.55;1.40;;;;;;;9.97;80.13;96546.69;5049563;28;20225;-78
2023/10/28 03:39:20;;;;;;;2.60;1.15;;;;;;;9.98;80.57;96542.09;5050539;28;20215;-78
2023/10/28 03:41:46;;;;;;;2.20;1.42;;;;;;;9.96;80.32;96545.03;5049140;28;20232;-78
2023/10/28 03:44:13;;;;;;;1.70;1.40;;;;;;;9.97;80.00;96535.06;5048756;28;20205;-78
2023/10/28 03:46:39;;;;;;;1.85;1.13;;;;;;;10.01;80.09;96545.16;5048464;28;20220;-78
2023/10/28 03:49:05;;;;;;;1.88;1.00;;;;;;;10.04;80.27;96542.00;5049807;28;20193;-78
2023/10/28 03:51:34;;;;;;;1.45;1.02;;;;;;;10.01;80.27;96547.03;5047125;28;20204;-78
2023/10/28 03:54:00;;;;;;;2.20;1.20;;;;;;;9.91;80.72;96536.81;5049750;28;20209;-78
2023/10/28 03:56:29;;;;;;;2.80;1.30;;;;;;;9.98;80.17;96542.91;5051024;28;20356;-78
2023/10/28 03:58:55;;;;;;;1.88;1.10;;;;;;;10.05;80.26;96540.09;5051145;28;20200;-78
2023/10/28 04:01:22;;;;;;;3.15;1.38;;;;;;;10.04;79.55;96543.88;5044970;28;20232;-78
2023/10/28 04:03:49;;;;;;;5.03;1.42;;;;;;;10.11;79.61;96539.97;5042303;28;20200;-77
2023/10/28 04:06:15;;;;;;;2.03;1.35;;;;;;;10.22;79.45;96543.75;5041867;28;20220;-78
2023/10/28 04:08:42;;;;;;;3.88;1.42;;;;;;;10.18;80.04;96545.25;5044177;28;20206;-78
2023/10/28 04:11:10;;;;;;;1.90;1.20;;;;;;;10.19;79.59;96538.81;5042040;28;20196;-78
2023/10/28 04:13:39;;;;;;;3.28;1.42;;;;;;;10.29;79.38;96539.06;5045340;28;20212;-78
2023/10/28 04:16:05;;;;;;;2.95;1.25;;;;;;;10.37;79.21;96541.41;5045858;28;20228;-78
2023/10/28 04:18:32;;;;;;;4.72;1.45;;;;;;;10.42;78.81;96540.66;5050321;28;20584;-78
2023/10/28 04:20:58;;;;;;;2.60;1.00;;;;;;;10.39;78.88;96539.28;5045072;28;20208;-78
2023/10/28 04:23:25;;;;;;;4.18;1.35;;;;;;;10.14;78.75;96511.63;5045364;28;20207;-78
2023/10/28 04:25:52;;;;;;;2.85;1.27;;;;;;;10.27;78.63;96533.06;5041763;28;20213;-78
2023/10/28 04:28:19;;;;;;;1.77;1.10;;;;;;;10.41;77.93;96539.84;5047125;28;20208;-78
2023/10/28 04:30:56;;;;;;;2.03;1.13;;;;;;;10.36;78.11;96533.53;5049281;28;20201;-78
2023/10/28 04:33:23;;;;;;;2.15;1.25;;;;;;;10.31;78.94;96525.28;5049132;28;20212;-78
2023/10/28 04:35:49;;;;;;;2.65;1.30;;;;;;;10.50;78.20;96534.06;5046447;28;20228;-78
2023/10/28 04:38:16;;;;;;;3.03;1.45;;;;;;;10.26;79.16;96528.72;5048417;28;20667;-78
2023/10/28 04:40:43;;;;;;;3.20;1.40;;;;;;;10.35;78.88;96534.59;5041751;28;20223;-78
2023/10/28 04:43:09;;;;;;;3.90;1.30;;;;;;;10.19;78.67;96535.25;5042279;28;20303;-78
2023/10/28 04:45:36;;;;;;;3.67;1.20;;;;;;;10.20;78.79;96532.34;5048648;28;20224;-77
2023/10/28 04:48:06;;;;;;;4.50;1.88;;;;;;;10.20;79.02;96523.41;5045962;28;20207;-79
2023/10/28 04:50:32;;;;;;;3.40;1.20;;;;;;;10.18;78.71;96530.91;5045399;28;20208;-78
2023/10/28 04:52:59;;;;;;;2.40;1.35;;;;;;;10.09;78.47;96528.56;5037055;28;20224;-78
2023/10/28 04:55:25;;;;;;;4.03;1.20;;;;;;;10.11;78.67;96525.63;5046674;28;20994;-78
2023/10/28 04:57:52;;;;;;;2.05;1.00;;;;;;;10.20;78.18;96518.84;5047266;28;20276;-78
2023/10/28 05:00:18;;;;;;;1.48;1.10;;;;;;;10.21;77.75;96525.06;5049691;28;20690;-78
2023/10/28 05:02:45;;;;;;;1.75;1.00;;;;;;;10.18;77.52;96528.22;5043659;28;20231;-78
2023/10/28 05:05:14;;;;;;;2.42;1.00;;;;;;;10.28;77.40;96529.28;5047682;28;20309;-78
2023/10/28 05:07:41;;;;;;;2.25;1.27;;;;;;;10.21;76.91;96541.28;5047724;28;20211;-78
2023/10/28 05:10:09;;;;;;;2.00;1.20;;;;;;;10.18;76.78;96530.91;5046982;28;20290;-78
2023/10/28 05:12:35;;;;;;;3.28;1.50;;;;;;;10.10;77.14;96535.63;5049194;28;20705;-78
2023/10/28 05:15:02;;;;;;;3.95;1.38;;;;;;;10.16;76.60;96538.44;5048888;28;20217;-78
2023/10/28 05:17:28;;;;;;;0.98;0.70;;;;;;;10.18;76.41;96536.31;5045932;28;20197;-78
2023/10/28 05:19:54;;;;;;;1.33;0.85;;;;;;;10.20;76.27;96526.13;5043652;28;20789;-78
2023/10/28 05:22:22;;;;;;;2.55;0.98;;;;;;;10.20;75.86;96529.66;5046347;28;20224;-78
2023/10/28 05:24:52;;;;;;;2.33;0.90;;;;;;;10.16;75.69;96535.72;5047821;28;21212;-78
2023/10/28 05:27:19;;;;;;;1.90;1.30;;;;;;;10.18;74.96;96530.91;5048198;28;20215;-78
2023/10/28 05:29:45;;;;;;;2.00;0.95;;;;;;;10.21;75.11;96535.88;5046732;28;20197;-78
2023/10/28 05:32:12;;;;;;;2.13;1.00;;;;;;;10.23;75.71;96531.06;5042696;28;20288;-76
2023/10/28 05:34:38;;;;;;;2.65;1.13;;;;;;;10.26;74.54;96534.13;5043218;28;20200;-78
2023/10/28 05:37:07;;;;;;;2.20;0.95;;;;;;;10.29;74.46;96543.63;5047976;28;20205;-79
2023/10/28 05:39:34;;;;;;;2.35;1.20;;;;;;;10.23;74.77;96544.59;5042866;28;20266;-78
2023/10/28 05:42:01;;;;;;;1.67;0.90;;;;;;;10.23;74.82;96540.00;5042833;28;20301;-78
2023/10/28 05:44:27;;;;;;;1.23;0.90;;;;;;;10.17;74.62;96542.78;5046919;28;20211;-78
2023/10/28 05:46:55;;;;;;;2.45;1.00;;;;;;;10.19;74.88;96551.47;5048710;28;20231;-78
2023/10/28 05:49:22;;;;;;;2.00;1.05;;;;;;;10.23;74.91;96544.59;5048418;28;20204;-79
2023/10/28 05:51:49;;;;;;;2.15;0.98;;;;;;;10.25;74.50;96547.88;5047498;28;20207;-78
2023/10/28 05:54:15;;;;;;;2.90;1.23;;;;;;;10.19;74.21;96554.19;5046501;28;20208;-77
2023/10/28 05:56:43;;;;;;;1.73;1.50;;;;;;;10.18;74.48;96553.38;5046835;28;20228;-78
2023/10/28 05:59:10;;;;;;;1.75;0.90;;;;;;;10.31;74.25;96558.56;5047861;28;20207;-78
2023/10/28 06:01:36;;;;;;;1.73;1.23;;;;;;;10.28;74.04;96561.75;5046151;28;20241;-77
2023/10/28 06:04:03;;;;;;;2.35;0.82;;;;;;;10.35;74.09;96567.03;5047547;28;20196;-78
2023/10/28 06:06:29;;;;;;;2.28;1.10;;;;;;;10.28;74.62;96563.63;5043932;28;20230;-78
2023/10/28 06:08:57;;;;;;;1.83;1.50;;;;;;;10.24;74.33;96574.09;5040118;28;20195;-78
2023/10/28 06:11:23;;;;;;;3.65;1.33;;;;;;;10.25;74.56;96570.31;5045131;28;20832;-78
2023/10/28 06:13:51;;;;;;;3.38;0.90;;;;;;;10.34;74.46;96573.50;5047615;28;20197;-78
2023/10/28 06:16:18;;;;;;;1.83;1.10;;;;;;;10.36;74.14;96579.50;5046925;28;20687;-78
2023/10/28 06:18:45;;;;;;;1.60;1.05;;;;;;;10.41;74.25;96569.59;5048109;28;20199;-77
2023/10/28 06:21:14;;;;;;;4.72;1.10;;;;;;;10.51;73.71;96577.09;5044504;28;20196;-77
2023/10/28 06:23:40;;;;;;;4.05;1.35;;;;;;;10.53;73.49;96580.41;5046863;28;20239;-77
2023/10/28 06:26:07;;;;;;;4.05;1.45;;;;;;;10.48;73.36;96583.00;5046952;28;20225;-77
2023/10/28 06:28:34;;;;;;;3.80;1.13;;;;;;;10.61;72.88;96592.75;5045420;28;20229;-77
2023/10/28 06:31:02;;;;;;;2.10;1.33;;;;;;;10.60;73.06;96591.91;5046400;28;20203;-78
2023/10/28 06:33:28;;;;;;;4.68;1.17;;;;;;;10.57;72.61;96596.97;5049157;28;20298;-77
2023/10/28 06:35:55;;;;;;;1.63;0.95;;;;;;;10.70;72.57;96594.03;5049415;28;20231;-77
2023/10/28 06:38:25;;;;;;;3.05;1.00;;;;;;;10.66;72.79;96599.09;5042181;28;20562;-77
2023/10/28 06:40:51;;;;;;;4.72;1.40;;;;;;;10.63;72.82;96604.16;5042871;28;20197;-77
2023/10/28 06:43:18;;;;;;;2.10;1.13;;;;;;;10.67;72.68;96603.44;5044900;28;20224;-77
2023/10/28 06:45:44;;;;;;;2.47;1.00;;;;;;;10.75;72.88;96610.34;5045797;28;20216;-77
2023/10/28 06:48:12;;;;;;;1.80;1.10;;;;;;;10.71;72.57;96610.03;5046733;28;20205;-76
2023/10/28 06:50:39;;;;;;;2.38;1.00;;;;;;;10.69;72.95;96614.03;5045358;28;20197;-74
2023/10/28 06:53:05;;;;;;;2.28;1.00;;;;;;;10.77;72.29;96613.63;5046908;28;20201;-76
2023/10/28 06:55:32;;;;;;;3.83;0.90;;;;;;;10.76;72.39;96617.41;5037025;28;20217;-81
2023/10/28 06:57:59;;;;;;;3.10;1.38;;;;;;;10.75;72.15;96624.69;5048269;28;20556;-76
2023/10/28 07:00:28;;;;;;;2.97;1.15;;;;;;;10.80;72.07;96629.41;5048263;28;20722;-82
2023/10/28 07:02:55;;;;;;;2.70;1.23;;;;;;;10.90;72.48;96626.09;5038855;28;20223;-75
2023/10/28 07:05:24;;;;;;;1.95;1.30;;;;;;;11.02;71.98;96621.47;5048241;28;20228;-76
2023/10/28 07:07:51;;;;;;;6.32;1.25;;;;;;;11.08;71.11;96626.72;5044006;28;20596;-73
2023/10/28 07:10:17;;;;;;;2.55;1.42;;;;;;;11.15;70.81;96637.44;5043976;28;20769;-74
2023/10/28 07:12:44;;;;;;;2.60;1.00;;;;;;;11.25;70.90;96636.81;5048658;28;20215;-83
2023/10/28 07:15:11;;;;;;;2.70;1.20;;;;;;;11.25;70.62;96644.94;5041987;28;20261;-82
2023/10/28 07:17:39;;;;;;;2.53;1.00;;;;;;;11.24;70.82;96637.88;5052167;28;20213;-82
2023/10/28 07:20:09;;;;;;;2.05;1.83;;;;;;;11.35;71.11;96640.56;5056234;28;20208;-82
2023/10/28 07:22:36;;;;;;;6.22;1.33;;;;;;;11.23;70.17;96653.31;5042926;28;20683;-81
2023/10/28 07:25:04;;;;;;;2.67;1.20;;;;;;;11.47;70.10;96653.22;5039479;28;20710;-82
2023/10/28 07:27:31;;;;;;;2.72;1.30;;;;;;;11.52;69.77;96651.44;5051165;28;20200;-80
2023/10/28 07:29:59;;;;;;;4.28;1.48;;;;;;;11.50;69.64;96648.13;5043365;28;20640;-80
2023/10/28 07:32:25;;;;;;;2.95;1.25;;;;;;;11.67;69.87;96640.88;5049471;28;20304;-78
2023/10/28 07:34:52;;;;;;;1.88;1.08;;;;;;;12.46;66.44;96640.84;5041339;28;20680;-79
2023/10/28 07:37:19;;;;;;;2.63;1.20;;;;;;;12.72;65.46;96633.88;5055035;28;20193;-79
2023/10/28 07:39:46;;;;;;;2.85;1.00;;;;;;;12.52;65.90;96653.44;5045151;28;20223;-79
2023/10/28 07:42:14;;;;;;;2.42;1.10;;;;;;;12.04;67.62;96649.41;5049813;28;20217;-79
2023/10/28 07:44:40;;;;;;;1.90;1.00;;;;;;;12.04;67.63;96660.25;5045212;28;20221;-85
2023/10/28 07:47:08;;;;;;;3.30;1.10;;;;;;;12.15;67.23;96660.44;5045944;28;20201;-80
2023/10/28 07:49:34;;;;;;;2.70;1.08;;;;;;;12.18;66.92;96666.19;5045631;28;20603;-80
2023/10/28 07:52:01;;;;;;;3.47;1.80;;;;;;;12.33;67.11;96658.31;5041904;28;20212;-84
2023/10/28 07:54:30;;;;;;;3.35;1.10;;;;;;;13.11;64.42;96670.00;5046901;28;20207;-79
2023/10/28 07:56:58;;;;;;;1.83;1.15;;;;;;;13.61;62.01;96678.00;5047864;28;20201;-79
2023/10/28 07:59:25;;;;;;;1.88;1.48;;;;;;;13.68;61.74;96678.59;5048418;28;20247;-79
2023/10/28 08:01:51;;;;;;;2.10;1.10;;;;;;;13.73;61.48;96675.09;5048814;28;20217;-79
2023/10/28 08:04:18;;;;;;;1.80;1.13;;;;;;;13.81;61.41;96680.09;5050128;28;20436;-79
2023/10/28 08:06:45;;;;;;;1.90;1.23;;;;;;;14.23;60.55;96682.13;5045869;28;20463;-79
2023/10/28 08:09:11;;;;;;;2.03;1.03;;;;;;;14.67;58.27;96689.03;5045046;28;20459;-80
2023/10/28 08:11:38;;;;;;;2.10;1.07;;;;;;;14.88;57.88;96678.28;5049122;28;20830;-79
2023/10/28 08:14:05;;;;;;;2.77;1.03;;;;;;;14.78;57.80;96688.03;5048294;28;20534;-79
2023/10/28 08:16:34;;;;;;;4.00;1.00;;;;;;;13.96;59.24;96687.59;5046413;28;20473;-78
2023/10/28 08:19:01;;;;;;;2.40;1.10;;;;;;;13.86;60.79;96718.22;5033252;28;20454;-78
2023/10/28 08:21:28;;;;;;;2.77;1.07;;;;;;;14.68;58.17;96674.34;5048487;28;20497;-79
2023/10/28 08:23:55;;;;;;;1.93;1.10;;;;;;;14.99;57.23;96675.34;5048939;28;20533;-79
2023/10/28 08:26:21;;;;;;;2.67;1.40;;;;;;;15.11;56.75;96677.88;5042792;28;20581;-79
2023/10/28 08:28:50;;;;;;;2.10;1.30;;;;;;;15.17;56.38;96676.81;5045948;28;20552;-79
2023/10/28 08:31:18;;;;;;;4.40;1.30;;;;;;;15.19;55.59;96696.47;5047361;28;20471;-79
2023/10/28 08:33:44;;;;;;;2.27;1.10;;;;;;;15.01;55.75;96688.72;5046855;28;20473;-79
2023/10/28 08:36:11;;;;;;;1.80;1.03;;;;;;;15.12;55.85;96690.41;5047018;28;20483;-79
2023/10/28 08:38:38;;;;;;;2.03;0.90;;;;;;;14.74;56.20;96678.75;5046965;28;20491;-79
2023/10/28 08:41:05;;;;;;;1.87;1.00;;;;;;;14.67;57.60;96694.47;5048773;28;20461;-78
2023/10/28 08:43:33;;;;;;;4.47;1.53;;;;;;;14.18;58.02;96693.78;5043584;28;20521;-78
2023/10/28 08:46:01;;;;;;;4.37;1.40;;;;;;;14.37;57.88;96677.88;5047416;28;20549;-78
2023/10/28 08:48:30;;;;;;;2.90;1.83;;;;;;;14.49;57.02;96697.63;5048860;28;20451;-78
2023/10/28 08:51:00;;;;;;;2.50;1.67;;;;;;;13.88;58.58;96704.38;5048274;28;20462;-78
2023/10/28 08:53:26;;;;;;;2.93;1.20;;;;;;;14.69;56.85;96703.22;5048006;28;20466;-78
2023/10/28 08:55:54;;;;;;;2.90;1.20;;;;;;;15.18;54.90;96704.91;5043520;28;20463;-78
2023/10/28 08:58:21;;;;;;;2.63;1.20;;;;;;;15.32;54.97;96712.31;5061753;28;20447;-78
2023/10/28 09:00:50;;;;;;;2.37;1.10;;;;;;;15.28;54.92;96703.03;5047864;28;20456;-78
2023/10/28 09:03:17;;;;;;;3.17;1.23;;;;;;;15.72;53.39;96708.16;5046697;28;20484;-78
2023/10/28 09:05:45;;;;;;;3.57;1.20;;;;;;;15.96;52.61;96703.88;5047403;28;20525;-78
2023/10/28 09:08:12;;;;;;;2.03;1.07;;;;;;;16.27;51.48;96712.09;5046808;28;20451;-78
2023/10/28 09:10:41;;;;;;;3.17;1.20;;;;;;;16.36;50.96;96726.88;5046945;28;20462;-79
2023/10/28 09:13:08;;;;;;;2.90;1.30;;;;;;;16.04;51.68;96719.72;5047968;28;20448;-79
2023/10/28 09:15:35;;;;;;;1.40;1.13;;;;;;;15.57;52.76;96730.75;5044865;28;20481;-78
2023/10/28 09:18:02;;;;;;;2.10;1.20;;;;;;;15.28;52.99;96713.13;5046435;28;20978;-78
2023/10/28 09:20:29;;;;;;;2.07;1.20;;;;;;;15.52;53.28;96717.06;5048123;28;20428;-78
2023/10/28 09:22:57;;;;;;;2.13;1.20;;;;;;;15.71;52.64;96707.34;5048889;28;20478;-78
2023/10/28 09:25:23;;;;;;;2.60;1.20;;;;;;;15.50;53.61;96712.97;5046552;28;20463;-78
2023/10/28 09:27:50;;;;;;;2.30;1.20;;;;;;;14.93;55.14;96713.75;5046486;28;20458;-78
2023/10/28 09:30:17;;;;;;;2.70;1.30;;;;;;;14.89;55.05;96694.38;5043203;28;20574;-78
2023/10/28 09:32:45;;;;;;;2.00;1.00;;;;;;;15.09;54.43;96713.56;5048437;28;20477;-79
2023/10/28 09:35:13;;;;;;;3.00;1.33;;;;;;;15.33;54.39;96721.31;5048488;28;20463;-78
2023/10/28 09:37:40;;;;;;;3.73;1.80;;;;;;;15.49;53.26;96717.59;5044349;28;20553;-78
2023/10/28 09:40:10;;;;;;;2.83;1.03;;;;;;;15.53;53.26;96710.53;5047082;28;20963;-78
2023/10/28 09:42:38;;;;;;;1.47;1.10;;;;;;;15.60;52.81;96721.19;5038107;28;20458;-78
2023/10/28 09:45:08;;;;;;;2.00;1.13;;;;;;;15.01;53.94;96715.97;5048954;28;20463;-78
2023/10/28 09:47:42;;;;;;;4.67;1.30;;;;;;;15.50;53.41;96719.25;5048478;28;20485;-78
2023/10/28 09:50:14;;;;;;;1.93;0.90;;;;;;;15.28;53.55;96711.22;5042513;28;20991;-78
2023/10/28 09:52:42;;;;;;;3.27;1.10;;;;;;;15.39;53.84;96714.81;5047909;28;20444;-79
2023/10/28 09:55:12;;;;;;;2.40;1.13;;;;;;;15.03;54.79;96702.91;5046132;28;20960;-78
2023/10/28 09:57:40;;;;;;;2.10;1.00;;;;;;;14.89;55.98;96708.00;5045701;28;20557;-78
2023/10/28 10:00:17;;;;;;;2.47;1.50;;;;;;;14.78;56.42;96711.72;5040777;28;20598;-79
2023/10/28 10:02:55;;;;;;;2.63;1.23;;;;;;;15.14;55.57;96712.78;5046600;28;20544;-78
2023/10/28 10:05:26;;;;;;;3.13;1.17;;;;;;;14.98;55.61;96711.03;5048433;28;21186;-79
2023/10/28 10:07:53;;;;;;;3.40;1.23;;;;;;;14.76;56.05;96701.09;5046573;28;20466;-78
2023/10/28 10:10:21;;;;;;;1.80;1.03;;;;;;;14.75;56.39;96718.53;5047444;28;20442;-78
2023/10/28 10:12:49;;;;;;;1.90;1.03;;;;;;;14.78;56.27;96715.28;5048288;28;20461;-78
2023/10/28 10:15:19;;;;;;;2.17;0.90;;;;;;;14.84;56.04;96718.03;5046640;28;20474;-78
2023/10/28 10:17:59;;;;;;;3.07;1.10;;;;;;;15.56;54.46;96706.44;5047337;28;20453;-78
2023/10/28 10:20:26;;;;;;;2.40;1.30;;;;;;;15.88;52.32;96728.16;5051480;28;20542;-78
2023/10/28 10:23:00;;;;;;;2.17;1.30;;;;;;;16.38;51.62;96717.31;5048025;28;20491;-79
2023/10/28 10:25:39;;;;;;;3.10;1.20;;;;;;;16.59;51.19;96709.94;5047768;28;20482;-78
2023/10/28 10:28:18;;;;;;;3.00;1.20;;;;;;;16.45;50.88;96703.41;5048559;28;20462;-79
2023/10/28 10:30:44;;;;;;;2.30;1.20;;;;;;;16.29;51.41;96715.38;5047104;28;20988;-79
2023/10/28 10:33:11;;;;;;;3.37;1.00;;;;;;;15.94;52.43;96719.69;5044562;28;20459;-79
2023/10/28 10:35:38;;;;;;;3.03;1.30;;;;;;;15.68;52.69;96715.25;5048417;28;20470;-79
2023/10/28 10:38:06;;;;;;;1.90;1.33;;;;;;;15.48;53.96;96721.41;5047850;28;21061;-79
2023/10/28 10:40:36;;;;;;;2.93;1.20;;;;;;;15.34;53.83;96714.78;5047638;28;20456;-79
2023/10/28 10:43:06;;;;;;;2.63;1.20;;;;;;;15.63;52.86;96707.84;5047561;28;20981;-79
2023/10/28 10:45:34;;;;;;;1.80;1.30;;;;;;;15.61;52.68;96709.22;5048331;28;20471;-79
2023/10/28 10:48:01;;;;;;;2.23;1.10;;;;;;;15.91;52.25;96714.78;5048280;28;20505;-78
2023/10/28 10:50:27;;;;;;;2.53;1.17;;;;;;;15.79;51.88;96695.09;5046258;28;20462;-78
2023/10/28 10:52:54;;;;;;;2.03;1.00;;;;;;;15.60;52.01;96713.03;5043060;28;20462;-79
2023/10/28 10:55:24;;;;;;;4.30;1.50;;;;;;;15.48;53.15;96709.69;5043649;28;20487;-79
2023/10/28 10:57:52;;;;;;;4.73;1.20;;;;;;;15.29;54.50;96721.03;5046180;28;20451;-79
2023/10/28 11:00:20;;;;;;;3.07;1.47;;;;;;;15.22;53.65;96717.75;5045967;28;20451;-79
2023/10/28 11:02:47;;;;;;;3.63;1.60;;;;;;;15.19;54.27;96710.09;5046031;28;20532;-81
2023/10/28 11:05:14;;;;;;;4.47;1.90;;;;;;;15.06;55.17;96716.00;5042865;28;21102;-83
2023/10/28 11:07:42;;;;;;;4.60;1.40;;;;;;;14.87;54.46;96720.25;5041090;28;20454;-81
2023/10/28 11:10:09;;;;;;;2.87;1.40;;;;;;;14.63;55.51;96726.03;5038627;28;20460;-80
2023/10/28 11:12:36;;;;;;;2.80;1.30;;;;;;;14.64;55.97;96727.69;5043195;28;20469;-80
2023/10/28 11:15:06;;;;;;;3.10;1.10;;;;;;;14.55;56.18;96726.53;5041219;28;20489;-79
2023/10/28 11:17:32;;;;;;;1.87;1.13;;;;;;;14.55;56.00;96715.66;5046645;28;20809;-80
2023/10/28 11:20:00;;;;;;;4.27;1.60;;;;;;;14.49;56.48;96713.97;5048088;28;20465;-81
2023/10/28 11:22:26;;;;;;;5.40;1.70;;;;;;;14.44;57.15;96713.91;5048885;28;20499;-79
2023/10/28 11:24:55;;;;;;;2.07;1.20;;;;;;;14.45;56.80;96710.13;5046488;28;20996;-81
2023/10/28 11:27:22;;;;;;;3.00;1.40;;;;;;;14.33;57.04;96720.31;5049844;28;20462;-81
2023/10/28 11:29:50;;;;;;;4.40;1.73;;;;;;;14.48;57.51;96720.47;5050174;28;20525;-81
2023/10/28 11:32:19;;;;;;;3.57;1.60;;;;;;;14.25;58.37;96704.47;5047452;28;20830;-81
2023/10/28 11:34:47;;;;;;;4.40;1.23;;;;;;;14.18;58.12;96718.28;5048203;28;20497;-80
2023/10/28 11:37:13;;;;;;;4.50;1.83;;;;;;;14.07;58.07;96721.97;5048221;28;20795;-81
2023/10/28 11:39:41;;;;;;;2.97;1.53;;;;;;;14.17;58.16;96721.25;5049798;28;20820;-81